createdAt,value
2019-02-09T00:00:17.986Z,7.49
2019-02-09T00:01:17.995Z,7.57
2019-02-09T00:02:17.963Z,7.49
2019-02-09T00:03:17.952Z,7.57
2019-02-09T00:04:17.950Z,7.63
2019-02-09T00:05:17.932Z,7.61
2019-02-09T00:06:17.929Z,7.60
2019-02-09T00:07:17.907Z,7.58
2019-02-09T00:08:17.894Z,7.64
2019-02-09T00:09:17.886Z,7.60
2019-02-09T00:10:17.899Z,7.61
2019-02-09T00:11:17.874Z,7.61
2019-02-09T00:12:17.870Z,7.49
2019-02-09T00:13:17.840Z,7.53
2019-02-09T00:14:17.833Z,7.67
2019-02-09T00:15:17.817Z,7.64
2019-02-09T00:16:17.829Z,7.58
2019-02-09T00:17:17.805Z,7.63
2019-02-09T00:18:17.783Z,7.55
2019-02-09T00:19:17.774Z,7.55
2019-02-09T00:20:17.763Z,7.57
2019-02-09T00:21:17.771Z,7.58
2019-02-09T00:22:17.741Z,7.58
2019-02-09T00:23:17.727Z,7.57
2019-02-09T00:24:17.721Z,7.58
2019-02-09T00:25:17.704Z,7.58
2019-02-09T00:26:17.707Z,7.63
2019-02-09T00:27:17.683Z,7.61
2019-02-09T00:28:17.676Z,7.61
2019-02-09T00:29:17.660Z,7.61
2019-02-09T00:30:17.648Z,7.67
2019-02-09T00:31:17.649Z,7.60
2019-02-09T00:32:17.630Z,7.61
2019-02-09T00:33:17.615Z,7.68
2019-02-09T00:34:17.604Z,7.67
2019-02-09T00:35:17.594Z,7.63
2019-02-09T00:36:17.591Z,7.67
2019-02-09T00:37:17.571Z,7.67
2019-02-09T00:38:17.562Z,7.63
2019-02-09T00:39:17.547Z,7.64
2019-02-09T00:40:17.536Z,7.79
2019-02-09T00:41:17.558Z,7.75
2019-02-09T00:42:17.517Z,7.77
2019-02-09T00:43:17.510Z,7.80
2019-02-09T00:44:17.493Z,7.85
2019-02-09T00:45:17.480Z,7.90
2019-02-09T00:46:17.479Z,7.89
2019-02-09T00:47:17.457Z,7.92
2019-02-09T00:48:17.445Z,8.01
2019-02-09T00:49:17.435Z,8.02
2019-02-09T00:50:17.422Z,8.07
2019-02-09T00:51:17.449Z,8.04
2019-02-09T00:52:17.401Z,8.02
2019-02-09T00:53:17.392Z,8.05
2019-02-09T00:54:17.389Z,8.11
2019-02-09T00:55:17.366Z,8.16
2019-02-09T00:56:17.358Z,8.18
2019-02-09T00:57:17.359Z,8.20
2019-02-09T00:58:17.335Z,8.23
2019-02-09T00:59:17.323Z,8.22
2019-02-09T01:00:17.316Z,8.26
2019-02-09T01:01:17.304Z,8.25
2019-02-09T01:02:17.315Z,8.26
2019-02-09T01:03:17.295Z,8.33
2019-02-09T01:04:17.269Z,8.25
2019-02-09T01:05:17.255Z,8.25
2019-02-09T01:06:17.243Z,8.25
2019-02-09T01:07:17.246Z,8.22
2019-02-09T01:08:17.223Z,8.22
2019-02-09T01:09:17.210Z,8.18
2019-02-09T01:10:17.218Z,8.19
2019-02-09T01:11:17.188Z,8.26
2019-02-09T01:12:17.193Z,8.30
2019-02-09T01:13:17.166Z,8.25
2019-02-09T01:14:17.161Z,8.22
2019-02-09T01:15:17.147Z,8.28
2019-02-09T01:16:17.134Z,8.33
2019-02-09T01:17:17.131Z,8.28
2019-02-09T01:18:17.111Z,8.29
2019-02-09T01:19:17.105Z,8.29
2019-02-09T01:20:17.089Z,8.33
2019-02-09T01:21:17.074Z,8.33
2019-02-09T01:22:17.078Z,8.33
2019-02-09T01:23:17.056Z,8.29
2019-02-09T01:24:17.040Z,8.26
2019-02-09T01:25:17.032Z,8.26
2019-02-09T01:26:17.023Z,8.29
2019-02-09T01:27:17.035Z,8.41
2019-02-09T01:28:17.008Z,8.29
2019-02-09T01:29:16.984Z,8.36
2019-02-09T01:30:16.976Z,8.26
2019-02-09T01:31:16.981Z,8.29
2019-02-09T01:32:16.965Z,8.30
2019-02-09T01:33:16.938Z,8.33
2019-02-09T01:34:16.946Z,8.33
2019-02-09T01:35:16.922Z,8.26
2019-02-09T01:36:16.910Z,8.28
2019-02-09T01:37:16.919Z,8.28
2019-02-09T01:38:16.882Z,8.20
2019-02-09T01:39:16.872Z,8.22
2019-02-09T01:40:16.861Z,8.16
2019-02-09T01:41:16.853Z,8.23
2019-02-09T01:42:16.847Z,8.22
2019-02-09T01:43:16.839Z,8.18
2019-02-09T01:44:16.815Z,8.15
2019-02-09T01:45:16.813Z,8.08
2019-02-09T01:46:16.797Z,8.07
2019-02-09T01:47:16.785Z,8.07
2019-02-09T01:48:16.782Z,8.08
2019-02-09T01:49:16.760Z,8.08
2019-02-09T01:50:16.756Z,7.98
2019-02-09T01:51:16.742Z,7.95
2019-02-09T01:52:16.725Z,7.87
2019-02-09T01:53:16.724Z,7.83
2019-02-09T01:54:16.703Z,7.74
2019-02-09T01:55:16.694Z,7.74
2019-02-09T01:56:16.682Z,7.74
2019-02-09T01:57:16.723Z,7.57
2019-02-09T01:58:16.677Z,7.67
2019-02-09T01:59:16.651Z,7.57
2019-02-09T02:00:16.637Z,7.57
2019-02-09T02:01:16.629Z,7.45
2019-02-09T02:02:16.623Z,7.58
2019-02-09T02:03:16.623Z,7.43
2019-02-09T02:04:16.593Z,7.43
2019-02-09T02:05:16.592Z,7.39
2019-02-09T02:06:16.568Z,7.32
2019-02-09T02:07:16.556Z,7.28
2019-02-09T02:08:16.557Z,7.31
2019-02-09T02:09:16.558Z,7.30
2019-02-09T02:10:16.524Z,7.16
2019-02-09T02:11:16.511Z,7.21
2019-02-09T02:12:16.505Z,7.13
2019-02-09T02:13:16.499Z,7.02
2019-02-09T02:14:16.483Z,7.02
2019-02-09T02:15:16.470Z,7.02
2019-02-09T02:16:16.465Z,7.02
2019-02-09T02:17:16.444Z,7.02
2019-02-09T02:18:16.442Z,6.99
2019-02-09T02:19:16.421Z,6.97
2019-02-09T02:20:16.409Z,6.89
2019-02-09T02:21:16.400Z,6.88
2019-02-09T02:22:16.396Z,6.87
2019-02-09T02:23:16.404Z,6.80
2019-02-09T02:24:16.364Z,6.84
2019-02-09T02:25:16.358Z,6.88
2019-02-09T02:26:16.344Z,6.80
2019-02-09T02:27:16.331Z,6.66
2019-02-09T02:28:16.334Z,6.69
2019-02-09T02:29:16.312Z,6.76
2019-02-09T02:30:22.530Z,6.61
2019-02-09T02:31:17.286Z,6.61
2019-02-09T02:32:16.282Z,6.67
2019-02-09T02:33:16.282Z,6.62
2019-02-09T02:34:16.250Z,6.66
2019-02-09T02:35:16.244Z,6.64
2019-02-09T02:36:16.231Z,6.64
2019-02-09T02:37:16.222Z,6.58
2019-02-09T02:38:16.215Z,6.52
2019-02-09T02:39:16.211Z,6.40
2019-02-09T02:40:16.184Z,6.55
2019-02-09T02:41:16.179Z,6.46
2019-02-09T02:42:16.168Z,6.51
2019-02-09T02:43:16.148Z,6.52
2019-02-09T02:44:16.149Z,6.48
2019-02-09T02:45:16.127Z,6.43
2019-02-09T02:46:16.115Z,6.46
2019-02-09T02:47:16.110Z,6.52
2019-02-09T02:48:16.094Z,6.46
2019-02-09T02:49:16.101Z,6.41
2019-02-09T02:50:16.072Z,6.48
2019-02-09T02:51:16.061Z,6.43
2019-02-09T02:52:16.050Z,6.41
2019-02-09T02:53:16.580Z,6.40
2019-02-09T02:54:16.035Z,6.48
2019-02-09T02:55:16.020Z,6.51
2019-02-09T02:56:16.002Z,6.46
2019-02-09T02:57:15.994Z,6.52
2019-02-09T02:58:15.982Z,6.52
2019-02-09T02:59:15.988Z,6.49
2019-02-09T03:00:15.957Z,6.55
2019-02-09T03:01:15.954Z,6.55
2019-02-09T03:02:15.945Z,6.55
2019-02-09T03:03:15.931Z,6.54
2019-02-09T03:04:15.922Z,6.58
2019-02-09T03:05:15.905Z,6.54
2019-02-09T03:06:15.894Z,6.66
2019-02-09T03:07:15.879Z,6.67
2019-02-09T03:08:15.875Z,6.61
2019-02-09T03:09:15.866Z,6.62
2019-02-09T03:10:15.848Z,6.55
2019-02-09T03:11:15.835Z,6.66
2019-02-09T03:12:15.822Z,6.67
2019-02-09T03:13:15.813Z,6.70
2019-02-09T03:14:15.833Z,6.56
2019-02-09T03:15:15.800Z,6.66
2019-02-09T03:16:15.778Z,6.61
2019-02-09T03:17:15.765Z,6.61
2019-02-09T03:18:15.757Z,6.67
2019-02-09T03:19:15.744Z,6.59
2019-02-09T03:20:15.747Z,6.59
2019-02-09T03:21:15.722Z,6.62
2019-02-09T03:22:15.712Z,6.62
2019-02-09T03:23:15.700Z,6.64
2019-02-09T03:24:15.692Z,6.61
2019-02-09T03:25:15.690Z,6.66
2019-02-09T03:26:15.669Z,6.58
2019-02-09T03:27:15.655Z,6.62
2019-02-09T03:28:15.646Z,6.67
2019-02-09T03:29:15.634Z,6.66
2019-02-09T03:30:15.650Z,6.61
2019-02-09T03:31:15.625Z,6.62
2019-02-09T03:32:15.628Z,6.62
2019-02-09T03:33:15.593Z,6.66
2019-02-09T03:34:15.578Z,6.59
2019-02-09T03:35:15.579Z,6.62
2019-02-09T03:36:15.558Z,6.61
2019-02-09T03:37:15.546Z,6.59
2019-02-09T03:38:15.531Z,6.59
2019-02-09T03:39:15.522Z,6.61
2019-02-09T03:40:15.523Z,6.52
2019-02-09T03:41:16.134Z,6.56
2019-02-09T03:42:15.487Z,6.58
2019-02-09T03:43:15.480Z,6.56
2019-02-09T03:44:15.470Z,6.56
2019-02-09T03:45:15.484Z,6.61
2019-02-09T03:46:15.442Z,6.56
2019-02-09T03:47:15.435Z,6.55
2019-02-09T03:48:15.419Z,6.58
2019-02-09T03:49:15.407Z,6.56
2019-02-09T03:50:15.396Z,6.54
2019-02-09T03:51:15.394Z,6.61
2019-02-09T03:52:15.370Z,6.58
2019-02-09T03:53:15.364Z,6.58
2019-02-09T03:54:15.353Z,6.49
2019-02-09T03:55:15.350Z,6.56
2019-02-09T03:56:15.347Z,6.66
2019-02-09T03:57:15.315Z,6.66
2019-02-09T03:58:15.305Z,6.67
2019-02-09T03:59:15.299Z,6.64
2019-02-09T04:00:15.304Z,6.66
2019-02-09T04:01:15.279Z,6.64
2019-02-09T04:02:15.262Z,6.64
2019-02-09T04:03:15.248Z,6.62
2019-02-09T04:04:15.240Z,6.56
2019-02-09T04:05:15.227Z,6.58
2019-02-09T04:06:15.232Z,6.61
2019-02-09T04:07:15.205Z,6.64
2019-02-09T04:08:15.191Z,6.62
2019-02-09T04:09:15.182Z,6.62
2019-02-09T04:10:15.176Z,6.66
2019-02-09T04:11:15.177Z,6.64
2019-02-09T04:12:15.152Z,6.54
2019-02-09T04:13:15.143Z,6.56
2019-02-09T04:14:15.126Z,6.56
2019-02-09T04:15:15.130Z,6.66
2019-02-09T04:16:15.113Z,6.55
2019-02-09T04:17:15.092Z,6.64
2019-02-09T04:18:15.086Z,6.62
2019-02-09T04:19:15.082Z,6.61
2019-02-09T04:20:15.057Z,6.59
2019-02-09T04:21:15.067Z,6.64
2019-02-09T04:22:15.040Z,6.61
2019-02-09T04:23:15.061Z,6.56
2019-02-09T04:24:15.013Z,6.56
2019-02-09T04:25:15.004Z,6.51
2019-02-09T04:26:15.004Z,6.54
2019-02-09T04:27:14.983Z,6.58
2019-02-09T04:28:14.983Z,6.62
2019-02-09T04:29:14.956Z,6.69
2019-02-09T04:30:14.950Z,6.55
2019-02-09T04:31:14.947Z,6.69
2019-02-09T04:32:14.925Z,6.73
2019-02-09T04:33:14.919Z,6.69
2019-02-09T04:34:14.936Z,6.74
2019-02-09T04:35:14.896Z,6.76
2019-02-09T04:36:14.881Z,6.77
2019-02-09T04:37:14.878Z,6.79
2019-02-09T04:38:14.861Z,6.87
2019-02-09T04:39:14.852Z,6.87
2019-02-09T04:40:14.840Z,6.89
2019-02-09T04:41:14.829Z,6.81
2019-02-09T04:42:14.833Z,6.91
2019-02-09T04:43:14.808Z,6.85
2019-02-09T04:44:14.793Z,6.88
2019-02-09T04:45:14.777Z,6.97
2019-02-09T04:46:14.769Z,6.88
2019-02-09T04:47:14.766Z,6.97
2019-02-09T04:48:14.751Z,6.92
2019-02-09T04:49:14.732Z,6.92
2019-02-09T04:50:14.727Z,6.97
2019-02-09T04:51:14.712Z,6.99
2019-02-09T04:52:14.708Z,7.07
2019-02-09T04:53:14.688Z,7.03
2019-02-09T04:54:14.677Z,7.02
2019-02-09T04:55:14.668Z,6.99
2019-02-09T04:56:14.655Z,7.13
2019-02-09T04:57:14.657Z,7.07
2019-02-09T04:58:14.635Z,7.07
2019-02-09T04:59:14.620Z,7.13
2019-02-09T05:00:14.613Z,7.05
2019-02-09T05:01:14.600Z,7.15
2019-02-09T05:02:14.604Z,7.17
2019-02-09T05:03:14.580Z,7.10
2019-02-09T05:04:14.567Z,7.23
2019-02-09T05:05:14.552Z,7.23
2019-02-09T05:06:14.546Z,7.24
2019-02-09T05:07:14.549Z,7.17
2019-02-09T05:08:14.522Z,7.15
2019-02-09T05:09:14.529Z,7.17
2019-02-09T05:10:14.503Z,7.15
2019-02-09T05:11:14.486Z,7.17
2019-02-09T05:12:14.480Z,7.28
2019-02-09T05:13:14.475Z,7.32
2019-02-09T05:14:14.450Z,7.15
2019-02-09T05:15:14.448Z,7.28
2019-02-09T05:16:14.428Z,7.27
2019-02-09T05:17:14.423Z,7.31
2019-02-09T05:18:14.417Z,7.28
2019-02-09T05:19:14.397Z,7.28
2019-02-09T05:20:14.383Z,7.39
2019-02-09T05:21:14.371Z,7.39
2019-02-09T05:22:14.363Z,7.31
2019-02-09T05:23:14.364Z,7.43
2019-02-09T05:24:14.336Z,7.37
2019-02-09T05:25:14.335Z,7.42
2019-02-09T05:26:14.316Z,7.48
2019-02-09T05:27:14.305Z,7.50
2019-02-09T05:28:14.302Z,7.53
2019-02-09T05:29:14.281Z,7.63
2019-02-09T05:30:14.269Z,7.67
2019-02-09T05:31:22.633Z,7.77
2019-02-09T05:32:15.244Z,7.77
2019-02-09T05:33:14.244Z,7.74
2019-02-09T05:34:14.226Z,7.79
2019-02-09T05:35:14.216Z,7.82
2019-02-09T05:36:14.205Z,7.79
2019-02-09T05:37:14.190Z,7.79
2019-02-09T05:38:14.188Z,7.85
2019-02-09T05:39:14.167Z,7.93
2019-02-09T05:40:14.160Z,7.95
2019-02-09T05:41:14.144Z,7.90
2019-02-09T05:42:14.134Z,7.92
2019-02-09T05:43:14.131Z,7.89
2019-02-09T05:44:14.110Z,8.05
2019-02-09T05:45:14.101Z,8.08
2019-02-09T05:46:14.093Z,8.12
2019-02-09T05:47:14.083Z,8.15
2019-02-09T05:48:14.078Z,8.15
2019-02-09T05:49:14.055Z,8.16
2019-02-09T05:50:14.042Z,8.16
2019-02-09T05:51:14.034Z,8.18
2019-02-09T05:52:14.020Z,8.19
2019-02-09T05:53:14.021Z,8.22
2019-02-09T05:54:14.001Z,8.29
2019-02-09T05:55:13.990Z,8.28
2019-02-09T05:56:13.979Z,8.33
2019-02-09T05:57:13.965Z,8.29
2019-02-09T05:58:13.967Z,8.34
2019-02-09T05:59:13.942Z,8.34
2019-02-09T06:00:13.935Z,8.37
2019-02-09T06:01:13.922Z,8.38
2019-02-09T06:02:13.912Z,8.40
2019-02-09T06:03:13.928Z,8.40
2019-02-09T06:04:13.889Z,8.41
2019-02-09T06:05:13.877Z,8.30
2019-02-09T06:06:13.863Z,8.29
2019-02-09T06:07:13.853Z,8.38
2019-02-09T06:08:13.849Z,8.28
2019-02-09T06:09:13.844Z,8.33
2019-02-09T06:10:13.817Z,8.41
2019-02-09T06:11:13.808Z,8.28
2019-02-09T06:12:13.795Z,8.38
2019-02-09T06:13:13.788Z,8.40
2019-02-09T06:14:13.790Z,8.29
2019-02-09T06:15:13.784Z,8.28
2019-02-09T06:16:13.751Z,8.28
2019-02-09T06:17:13.740Z,8.26
2019-02-09T06:18:13.729Z,8.33
2019-02-09T06:19:13.726Z,8.29
2019-02-09T06:20:13.713Z,8.30
2019-02-09T06:21:13.694Z,8.28
2019-02-09T06:22:13.683Z,8.30
2019-02-09T06:23:13.676Z,8.29
2019-02-09T06:24:13.671Z,8.23
2019-02-09T06:25:13.649Z,8.15
2019-02-09T06:26:13.637Z,8.18
2019-02-09T06:27:13.632Z,8.11
2019-02-09T06:28:13.615Z,8.10
2019-02-09T06:29:13.618Z,8.20
2019-02-09T06:30:13.596Z,8.12
2019-02-09T06:31:13.583Z,8.07
2019-02-09T06:32:13.572Z,8.15
2019-02-09T06:33:13.560Z,8.16
2019-02-09T06:34:13.568Z,8.05
2019-02-09T06:35:13.544Z,8.08
2019-02-09T06:36:13.530Z,8.08
2019-02-09T06:37:13.519Z,8.10
2019-02-09T06:38:13.504Z,8.08
2019-02-09T06:39:13.508Z,8.08
2019-02-09T06:40:13.493Z,8.02
2019-02-09T06:41:13.473Z,8.10
2019-02-09T06:42:13.458Z,8.07
2019-02-09T06:43:13.448Z,8.05
2019-02-09T06:44:13.447Z,8.19
2019-02-09T06:45:13.424Z,8.15
2019-02-09T06:46:13.415Z,8.15
2019-02-09T06:47:13.412Z,8.10
2019-02-09T06:48:13.393Z,8.04
2019-02-09T06:49:13.395Z,8.07
2019-02-09T06:50:13.372Z,8.08
2019-02-09T06:51:13.355Z,8.16
2019-02-09T06:52:13.352Z,8.22
2019-02-09T06:53:13.379Z,8.19
2019-02-09T06:54:13.341Z,8.20
2019-02-09T06:55:13.311Z,8.28
2019-02-09T06:56:13.314Z,8.36
2019-02-09T06:57:13.292Z,8.36
2019-02-09T06:58:13.282Z,8.28
2019-02-09T06:59:13.267Z,8.33
2019-02-09T07:00:13.266Z,8.38
2019-02-09T07:01:13.249Z,8.45
2019-02-09T07:02:13.233Z,8.55
2019-02-09T07:03:13.230Z,8.58
2019-02-09T07:04:13.215Z,8.62
2019-02-09T07:05:13.210Z,8.58
2019-02-09T07:06:13.195Z,8.58
2019-02-09T07:07:13.179Z,8.62
2019-02-09T07:08:13.169Z,8.70
2019-02-09T07:09:13.161Z,8.76
2019-02-09T07:10:13.160Z,8.86
2019-02-09T07:11:13.130Z,8.87
2019-02-09T07:12:13.119Z,8.91
2019-02-09T07:13:13.109Z,8.96
2019-02-09T07:14:13.101Z,8.89
2019-02-09T07:15:13.098Z,8.91
2019-02-09T07:16:13.087Z,8.95
2019-02-09T07:17:13.065Z,8.84
2019-02-09T07:18:13.052Z,8.89
2019-02-09T07:19:13.041Z,8.95
2019-02-09T07:20:13.050Z,8.89
2019-02-09T07:21:13.021Z,8.94
2019-02-09T07:22:13.015Z,8.92
2019-02-09T07:23:13.000Z,8.95
2019-02-09T07:24:12.986Z,8.91
2019-02-09T07:25:12.985Z,8.89
2019-02-09T07:26:12.972Z,8.94
2019-02-09T07:27:12.950Z,9.01
2019-02-09T07:28:12.943Z,8.99
2019-02-09T07:29:12.930Z,8.98
2019-02-09T07:30:12.926Z,8.96
2019-02-09T07:31:12.908Z,8.92
2019-02-09T07:32:12.895Z,8.95
2019-02-09T07:33:12.883Z,9.05
2019-02-09T07:34:12.877Z,8.98
2019-02-09T07:35:12.873Z,9.02
2019-02-09T07:36:12.850Z,9.05
2019-02-09T07:37:12.841Z,8.94
2019-02-09T07:38:12.835Z,8.95
2019-02-09T07:39:12.819Z,9.11
2019-02-09T07:40:12.823Z,9.05
2019-02-09T07:41:12.800Z,9.02
2019-02-09T07:42:12.782Z,9.08
2019-02-09T07:43:12.772Z,9.05
2019-02-09T07:44:12.761Z,9.04
2019-02-09T07:45:12.764Z,9.08
2019-02-09T07:46:12.738Z,8.91
2019-02-09T07:47:12.731Z,9.04
2019-02-09T07:48:12.720Z,8.99
2019-02-09T07:49:12.704Z,9.05
2019-02-09T07:50:13.230Z,9.01
2019-02-09T07:51:12.686Z,8.98
2019-02-09T07:52:12.672Z,8.89
2019-02-09T07:53:12.662Z,9.10
2019-02-09T07:54:12.653Z,9.04
2019-02-09T07:55:12.636Z,9.10
2019-02-09T07:56:12.639Z,9.14
2019-02-09T07:57:12.618Z,9.01
2019-02-09T07:58:12.603Z,8.99
2019-02-09T07:59:12.592Z,9.02
2019-02-09T08:00:12.580Z,9.02
2019-02-09T08:01:12.579Z,8.94
2019-02-09T08:02:12.558Z,9.01
2019-02-09T08:03:12.547Z,9.02
2019-02-09T08:04:12.535Z,8.99
2019-02-09T08:05:12.530Z,9.01
2019-02-09T08:06:12.524Z,9.05
2019-02-09T08:07:12.501Z,9.01
2019-02-09T08:08:12.492Z,9.04
2019-02-09T08:09:12.479Z,9.05
2019-02-09T08:10:12.467Z,8.99
2019-02-09T08:11:12.478Z,8.98
2019-02-09T08:12:12.445Z,8.94
2019-02-09T08:13:12.447Z,8.91
2019-02-09T08:14:12.433Z,8.96
2019-02-09T08:15:12.411Z,9.02
2019-02-09T08:16:12.411Z,8.94
2019-02-09T08:17:12.390Z,8.89
2019-02-09T08:18:12.378Z,8.92
2019-02-09T08:19:12.368Z,8.94
2019-02-09T08:20:12.355Z,8.96
2019-02-09T08:21:12.354Z,9.01
2019-02-09T08:22:12.332Z,8.95
2019-02-09T08:23:12.325Z,8.89
2019-02-09T08:24:12.316Z,8.96
2019-02-09T08:25:12.299Z,8.92
2019-02-09T08:26:12.300Z,8.92
2019-02-09T08:27:12.302Z,8.86
2019-02-09T08:28:12.263Z,8.95
2019-02-09T08:29:12.255Z,8.83
2019-02-09T08:30:12.247Z,8.79
2019-02-09T08:31:12.244Z,8.74
2019-02-09T08:32:13.067Z,8.66
2019-02-09T08:33:12.209Z,8.76
2019-02-09T08:34:12.195Z,8.71
2019-02-09T08:35:12.185Z,8.62
2019-02-09T08:36:12.189Z,8.59
2019-02-09T08:37:12.164Z,8.62
2019-02-09T08:38:12.152Z,8.55
2019-02-09T08:39:12.144Z,8.61
2019-02-09T08:40:12.130Z,8.58
2019-02-09T08:41:12.126Z,8.56
2019-02-09T08:42:12.107Z,8.61
2019-02-09T08:43:12.102Z,8.58
2019-02-09T08:44:12.099Z,8.55
2019-02-09T08:45:12.072Z,8.53
2019-02-09T08:46:12.105Z,8.59
2019-02-09T08:47:12.054Z,8.63
2019-02-09T08:48:12.051Z,8.63
2019-02-09T08:49:12.030Z,8.70
2019-02-09T08:50:12.016Z,8.74
2019-02-09T08:51:12.005Z,8.76
2019-02-09T08:52:12.006Z,8.76
2019-02-09T08:53:11.992Z,8.89
2019-02-09T08:54:11.971Z,8.92
2019-02-09T08:55:11.961Z,8.83
2019-02-09T08:56:11.948Z,8.87
2019-02-09T08:57:11.952Z,8.95
2019-02-09T08:58:11.926Z,8.95
2019-02-09T08:59:11.920Z,8.98
2019-02-09T09:00:11.904Z,8.92
2019-02-09T09:01:11.891Z,8.98
2019-02-09T09:02:11.890Z,8.91
2019-02-09T09:03:11.869Z,9.04
2019-02-09T09:04:11.858Z,9.02
2019-02-09T09:05:11.856Z,9.02
2019-02-09T09:06:11.835Z,9.02
2019-02-09T09:07:11.842Z,9.04
2019-02-09T09:08:11.819Z,8.98
2019-02-09T09:09:11.803Z,9.04
2019-02-09T09:10:11.792Z,9.05
2019-02-09T09:11:11.784Z,8.98
2019-02-09T09:12:11.803Z,9.02
2019-02-09T09:13:11.766Z,9.08
2019-02-09T09:14:11.751Z,9.01
2019-02-09T09:15:11.734Z,9.04
2019-02-09T09:16:11.724Z,9.14
2019-02-09T09:17:11.736Z,9.18
2019-02-09T09:18:11.706Z,9.14
2019-02-09T09:19:11.689Z,9.08
2019-02-09T09:20:11.680Z,9.05
2019-02-09T09:21:11.668Z,9.02
2019-02-09T09:22:11.677Z,8.98
2019-02-09T09:23:11.648Z,9.05
2019-02-09T09:24:11.635Z,8.98
2019-02-09T09:25:11.622Z,9.05
2019-02-09T09:26:11.614Z,8.96
2019-02-09T09:27:11.600Z,8.95
2019-02-09T09:28:11.604Z,8.91
2019-02-09T09:29:11.577Z,8.92
2019-02-09T09:30:11.570Z,8.91
2019-02-09T09:31:11.557Z,8.99
2019-02-09T09:32:11.549Z,9.11
2019-02-09T09:33:11.558Z,9.23
2019-02-09T09:34:11.522Z,9.24
2019-02-09T09:35:11.509Z,9.31
2019-02-09T09:36:11.498Z,9.23
2019-02-09T09:37:11.488Z,9.24
2019-02-09T09:38:11.490Z,9.24
2019-02-09T09:39:11.464Z,9.21
2019-02-09T09:40:11.458Z,9.21
2019-02-09T09:41:11.448Z,9.21
2019-02-09T09:42:11.432Z,9.43
2019-02-09T09:43:11.429Z,9.47
2019-02-09T09:44:11.412Z,9.48
2019-02-09T09:45:11.398Z,9.50
2019-02-09T09:46:11.387Z,9.51
2019-02-09T09:47:11.376Z,9.46
2019-02-09T09:48:11.380Z,9.51
2019-02-09T09:49:11.358Z,9.51
2019-02-09T09:50:11.350Z,9.50
2019-02-09T09:51:11.341Z,9.66
2019-02-09T09:52:11.320Z,9.66
2019-02-09T09:53:11.327Z,9.69
2019-02-09T09:54:11.299Z,9.65
2019-02-09T09:55:11.286Z,9.69
2019-02-09T09:56:11.276Z,9.71
2019-02-09T09:57:11.264Z,9.86
2019-02-09T09:58:11.286Z,9.78
2019-02-09T09:59:11.245Z,9.84
2019-02-09T10:00:11.233Z,9.87
2019-02-09T10:01:11.219Z,9.87
2019-02-09T10:02:11.211Z,9.87
2019-02-09T10:03:11.209Z,9.91
2019-02-09T10:04:11.189Z,9.90
2019-02-09T10:05:11.174Z,9.96
2019-02-09T10:06:11.164Z,9.96
2019-02-09T10:07:11.155Z,9.96
2019-02-09T10:08:11.169Z,9.99
2019-02-09T10:09:11.129Z,9.99
2019-02-09T10:10:11.117Z,9.94
2019-02-09T10:11:11.106Z,10.04
2019-02-09T10:12:11.097Z,10.02
2019-02-09T10:13:11.097Z,10.01
2019-02-09T10:14:11.083Z,10.02
2019-02-09T10:15:11.065Z,9.97
2019-02-09T10:16:11.054Z,10.01
2019-02-09T10:17:11.098Z,10.04
2019-02-09T10:18:11.031Z,10.07
2019-02-09T10:19:11.027Z,10.04
2019-02-09T10:20:11.005Z,10.04
2019-02-09T10:21:10.993Z,10.12
2019-02-09T10:22:10.983Z,10.02
2019-02-09T10:23:10.975Z,10.05
2019-02-09T10:24:10.974Z,10.15
2019-02-09T10:25:10.951Z,10.07
2019-02-09T10:26:10.938Z,10.11
2019-02-09T10:27:10.929Z,10.05
2019-02-09T10:28:10.914Z,10.22
2019-02-09T10:29:10.914Z,10.22
2019-02-09T10:30:10.895Z,10.23
2019-02-09T10:31:10.885Z,10.29
2019-02-09T10:32:10.870Z,10.17
2019-02-09T10:33:10.860Z,10.18
2019-02-09T10:34:10.855Z,10.22
2019-02-09T10:35:10.848Z,10.23
2019-02-09T10:36:10.823Z,10.23
2019-02-09T10:37:10.812Z,10.23
2019-02-09T10:38:10.803Z,10.30
2019-02-09T10:39:10.802Z,10.38
2019-02-09T10:40:10.788Z,10.23
2019-02-09T10:41:10.770Z,10.26
2019-02-09T10:42:10.755Z,10.29
2019-02-09T10:43:10.754Z,10.27
2019-02-09T10:44:10.755Z,10.27
2019-02-09T10:45:10.721Z,10.33
2019-02-09T10:46:10.709Z,10.40
2019-02-09T10:47:10.696Z,10.36
2019-02-09T10:48:10.689Z,10.40
2019-02-09T10:49:10.686Z,10.30
2019-02-09T10:50:10.667Z,10.29
2019-02-09T10:51:10.652Z,10.27
2019-02-09T10:52:10.648Z,10.20
2019-02-09T10:53:10.631Z,10.25
2019-02-09T10:54:10.633Z,10.11
2019-02-09T10:55:10.632Z,9.99
2019-02-09T10:56:10.596Z,9.99
2019-02-09T10:57:10.587Z,9.94
2019-02-09T10:58:10.579Z,9.89
2019-02-09T10:59:10.594Z,9.90
2019-02-09T11:00:10.562Z,9.89
2019-02-09T11:01:10.538Z,9.78
2019-02-09T11:02:10.534Z,9.81
2019-02-09T11:03:10.523Z,9.81
2019-02-09T11:04:10.504Z,9.71
2019-02-09T11:05:10.507Z,9.83
2019-02-09T11:06:10.494Z,9.76
2019-02-09T11:07:10.469Z,9.69
2019-02-09T11:08:10.460Z,9.79
2019-02-09T11:09:10.466Z,9.65
2019-02-09T11:10:10.449Z,9.81
2019-02-09T11:11:10.427Z,9.79
2019-02-09T11:12:10.415Z,9.83
2019-02-09T11:13:10.411Z,9.81
2019-02-09T11:14:10.394Z,9.76
2019-02-09T11:15:10.475Z,9.87
2019-02-09T11:16:10.373Z,9.91
2019-02-09T11:17:10.358Z,9.90
2019-02-09T11:18:10.356Z,9.97
2019-02-09T11:19:10.342Z,10.01
2019-02-09T11:20:10.336Z,9.99
2019-02-09T11:21:10.312Z,10.05
2019-02-09T11:22:10.300Z,10.11
2019-02-09T11:23:10.292Z,10.25
2019-02-09T11:24:10.278Z,10.32
2019-02-09T11:25:10.280Z,10.36
2019-02-09T11:26:10.314Z,10.33
2019-02-09T11:27:10.247Z,10.41
2019-02-09T11:28:10.238Z,10.55
2019-02-09T11:29:10.223Z,10.55
2019-02-09T11:30:10.224Z,10.59
2019-02-09T11:31:10.280Z,10.52
2019-02-09T11:32:10.188Z,10.47
2019-02-09T11:33:10.177Z,10.47
2019-02-09T11:34:10.166Z,10.38
2019-02-09T11:35:10.171Z,10.44
2019-02-09T11:36:10.154Z,10.48
2019-02-09T11:37:10.153Z,10.51
2019-02-09T11:38:10.124Z,10.61
2019-02-09T11:39:10.112Z,10.63
2019-02-09T11:40:10.152Z,10.76
2019-02-09T11:41:10.087Z,10.68
2019-02-09T11:42:10.074Z,10.84
2019-02-09T11:43:10.064Z,10.86
2019-02-09T11:44:10.054Z,10.92
2019-02-09T11:45:10.043Z,10.94
2019-02-09T11:46:10.039Z,10.97
2019-02-09T11:47:10.016Z,11.04
2019-02-09T11:48:10.006Z,11.14
2019-02-09T11:49:09.994Z,11.19
2019-02-09T11:50:09.993Z,11.19
2019-02-09T11:51:09.996Z,11.22
2019-02-09T11:52:09.961Z,11.21
2019-02-09T11:53:09.954Z,11.36
2019-02-09T11:54:09.940Z,11.35
2019-02-09T11:55:09.930Z,11.19
2019-02-09T11:56:09.927Z,11.22
2019-02-09T11:57:09.906Z,11.25
2019-02-09T11:58:09.893Z,11.19
2019-02-09T11:59:09.883Z,11.24
2019-02-09T12:00:09.877Z,11.22
2019-02-09T12:01:09.870Z,11.28
2019-02-09T12:02:09.850Z,11.24
2019-02-09T12:03:14.915Z,11.24
2019-02-09T12:04:10.828Z,11.22
2019-02-09T12:05:09.814Z,11.21
2019-02-09T12:06:09.814Z,11.22
2019-02-09T12:07:09.796Z,11.24
2019-02-09T12:08:09.779Z,11.10
2019-02-09T12:09:09.775Z,11.15
2019-02-09T12:10:09.756Z,11.21
2019-02-09T12:11:09.759Z,11.19
2019-02-09T12:12:09.740Z,11.10
2019-02-09T12:13:09.725Z,11.14
2019-02-09T12:14:09.715Z,11.09
2019-02-09T12:15:09.707Z,10.97
2019-02-09T12:16:09.700Z,11.04
2019-02-09T12:17:09.680Z,11.04
2019-02-09T12:18:09.672Z,10.97
2019-02-09T12:19:09.661Z,11.02
2019-02-09T12:20:09.652Z,10.91
2019-02-09T12:21:09.648Z,10.88
2019-02-09T12:22:09.627Z,10.96
2019-02-09T12:23:09.615Z,10.92
2019-02-09T12:24:09.600Z,10.94
2019-02-09T12:25:09.589Z,10.94
2019-02-09T12:26:09.576Z,10.99
2019-02-09T12:27:09.583Z,10.94
2019-02-09T12:28:09.555Z,10.99
2019-02-09T12:29:09.549Z,10.96
2019-02-09T12:30:09.535Z,11.00
2019-02-09T12:31:09.521Z,11.02
2019-02-09T12:32:09.520Z,11.06
2019-02-09T12:33:09.497Z,11.00
2019-02-09T12:34:09.486Z,11.07
2019-02-09T12:35:09.481Z,11.06
2019-02-09T12:36:09.465Z,11.14
2019-02-09T12:37:09.462Z,11.22
2019-02-09T12:38:09.445Z,11.17
2019-02-09T12:39:09.445Z,11.15
2019-02-09T12:40:09.424Z,11.29
2019-02-09T12:41:09.409Z,11.25
2019-02-09T12:42:09.411Z,11.22
2019-02-09T12:43:09.389Z,11.11
2019-02-09T12:44:09.375Z,11.10
2019-02-09T12:45:09.371Z,11.06
2019-02-09T12:46:09.350Z,11.09
2019-02-09T12:47:09.354Z,11.00
2019-02-09T12:48:09.332Z,11.04
2019-02-09T12:49:09.321Z,10.96
2019-02-09T12:50:09.305Z,11.02
2019-02-09T12:51:09.295Z,11.00
2019-02-09T12:52:09.296Z,10.97
2019-02-09T12:53:09.276Z,10.92
2019-02-09T12:54:09.260Z,10.92
2019-02-09T12:55:09.250Z,10.99
2019-02-09T12:56:09.241Z,11.02
2019-02-09T12:57:09.265Z,10.89
2019-02-09T12:58:09.216Z,10.91
2019-02-09T12:59:14.727Z,10.85
2019-02-09T13:00:10.200Z,10.97
2019-02-09T13:01:09.183Z,10.76
2019-02-09T13:02:09.169Z,10.84
2019-02-09T13:03:09.173Z,10.79
2019-02-09T13:04:09.147Z,10.81
2019-02-09T13:05:10.398Z,10.79
2019-02-09T13:06:09.129Z,10.81
2019-02-09T13:07:09.114Z,10.73
2019-02-09T13:08:09.115Z,10.74
2019-02-09T13:09:09.091Z,10.70
2019-02-09T13:10:09.080Z,10.70
2019-02-09T13:11:09.077Z,10.64
2019-02-09T13:12:09.070Z,10.64
2019-02-09T13:13:09.058Z,10.61